createdAt,value
2022-12-26T00:00:31.171Z,10.50
2022-12-26T00:04:51.045Z,10.57
2022-12-26T00:08:54.801Z,10.55
2022-12-26T00:13:38.500Z,10.54
2022-12-26T00:17:18.922Z,10.69
2022-12-26T00:21:20.925Z,10.63
2022-12-26T00:25:22.335Z,10.64
2022-12-26T00:29:25.055Z,10.66
2022-12-26T00:33:26.492Z,10.57
2022-12-26T00:37:27.903Z,10.59
2022-12-26T00:41:29.958Z,10.57
2022-12-26T00:45:32.690Z,10.58
2022-12-26T00:50:11.242Z,10.53
2022-12-26T00:53:55.531Z,10.56
2022-12-26T00:57:56.932Z,10.46
2022-12-26T01:01:59.863Z,10.41
2022-12-26T01:06:02.850Z,10.36
2022-12-26T01:10:05.525Z,10.38
2022-12-26T01:14:09.174Z,10.44
2022-12-26T01:18:11.901Z,10.40
2022-12-26T01:22:13.333Z,10.26
2022-12-26T01:26:19.933Z,10.18
2022-12-26T01:30:21.841Z,10.11
2022-12-26T01:34:24.650Z,10.15
2022-12-26T01:38:26.349Z,10.24
2022-12-26T01:42:37.402Z,10.25
2022-12-26T01:46:40.558Z,10.13
2022-12-26T01:50:47.683Z,10.16
2022-12-26T01:54:52.433Z,10.04
2022-12-26T01:58:58.199Z,9.94
2022-12-26T02:02:59.651Z,10.11
2022-12-26T02:07:04.687Z,10.15
2022-12-26T02:11:12.504Z,10.04
2022-12-26T02:15:17.214Z,9.96
2022-12-26T02:19:29.061Z,9.83
2022-12-26T02:24:01.240Z,9.71
2022-12-26T02:28:27.244Z,9.88
2022-12-26T02:32:45.872Z,9.98
2022-12-26T02:36:59.354Z,10.03
2022-12-26T02:41:08.335Z,9.93
2022-12-26T02:45:18.823Z,9.99
2022-12-26T02:49:32.007Z,9.80
2022-12-26T02:53:48.115Z,9.80
2022-12-26T02:57:56.000Z,9.73
2022-12-26T03:02:01.858Z,9.85
2022-12-26T03:06:09.070Z,9.76
2022-12-26T03:10:18.801Z,9.83
2022-12-26T03:14:25.234Z,9.83
2022-12-26T03:18:58.212Z,9.83
2022-12-26T03:22:54.874Z,10.08
2022-12-26T03:26:56.182Z,10.20
2022-12-26T03:31:01.529Z,10.35
2022-12-26T03:35:12.925Z,10.33
2022-12-26T03:39:28.128Z,10.37
2022-12-26T03:43:42.787Z,10.54
2022-12-26T03:47:51.687Z,10.65
2022-12-26T03:51:59.660Z,10.79
2022-12-26T03:56:08.387Z,10.80
2022-12-26T04:00:12.825Z,10.91
2022-12-26T04:04:16.402Z,10.79
2022-12-26T04:08:22.937Z,10.73
2022-12-26T04:12:29.939Z,10.79
2022-12-26T04:16:35.565Z,10.73
2022-12-26T04:20:38.276Z,10.80
2022-12-26T04:24:44.985Z,10.95
2022-12-26T04:28:47.797Z,11.04
2022-12-26T04:32:50.170Z,11.21
2022-12-26T04:36:56.474Z,11.33
2022-12-26T04:41:01.921Z,11.17
2022-12-26T04:45:07.151Z,11.14
2022-12-26T04:49:10.536Z,11.23
2022-12-26T04:53:14.479Z,11.32
2022-12-26T04:57:15.893Z,11.34
2022-12-26T05:01:18.846Z,11.29
2022-12-26T05:05:20.375Z,11.24
2022-12-26T05:09:21.779Z,11.30
2022-12-26T05:13:23.184Z,11.28
2022-12-26T05:17:26.280Z,11.04
2022-12-26T05:21:27.813Z,11.20
2022-12-26T05:25:32.214Z,11.31
2022-12-26T05:29:33.652Z,11.32
2022-12-26T05:33:36.386Z,11.27
2022-12-26T05:37:37.790Z,11.19
2022-12-26T05:41:39.460Z,11.25
2022-12-26T05:45:40.872Z,11.31
2022-12-26T05:49:43.655Z,11.18
2022-12-26T05:53:45.089Z,11.05
2022-12-26T05:57:46.484Z,11.08
2022-12-26T06:01:47.971Z,11.24
2022-12-26T06:05:50.761Z,11.31
2022-12-26T06:09:52.196Z,11.26
2022-12-26T06:13:54.161Z,11.28
2022-12-26T06:17:55.718Z,11.27
2022-12-26T06:21:58.456Z,11.26
2022-12-26T06:25:59.883Z,11.30
2022-12-26T06:30:01.356Z,11.16
2022-12-26T06:34:02.772Z,11.20
2022-12-26T06:38:05.504Z,11.09
2022-12-26T06:42:07.149Z,11.02
2022-12-26T06:46:13.608Z,11.12
2022-12-26T06:50:15.259Z,11.18
2022-12-26T06:54:18.021Z,11.11
2022-12-26T06:58:19.417Z,11.20
2022-12-26T07:02:20.920Z,11.12
2022-12-26T07:06:24.600Z,10.94
2022-12-26T07:10:27.359Z,10.97
2022-12-26T07:14:28.780Z,11.07
2022-12-26T07:18:30.184Z,10.89
2022-12-26T07:22:31.671Z,10.83
2022-12-26T07:26:34.457Z,10.81
2022-12-26T07:30:35.879Z,10.72
2022-12-26T07:34:37.281Z,10.83
2022-12-26T07:38:38.695Z,10.68
2022-12-26T07:42:41.409Z,10.76
2022-12-26T07:46:43.148Z,10.82
2022-12-26T07:50:44.592Z,10.79
2022-12-26T07:54:45.985Z,10.91
2022-12-26T07:58:49.839Z,10.76
2022-12-26T08:02:51.865Z,10.71
2022-12-26T08:06:53.348Z,10.72
2022-12-26T08:10:59.173Z,10.84
2022-12-26T08:15:01.926Z,11.04
2022-12-26T08:19:03.498Z,11.13
2022-12-26T08:23:04.880Z,11.26
2022-12-26T08:27:06.297Z,11.39
2022-12-26T08:31:10.727Z,11.35
2022-12-26T08:35:12.153Z,11.41
2022-12-26T08:39:13.559Z,11.48
2022-12-26T08:43:34.804Z,11.54
2022-12-26T08:47:37.671Z,11.61
2022-12-26T08:51:39.356Z,11.62
2022-12-26T08:55:40.748Z,11.73
2022-12-26T08:59:42.755Z,11.80
2022-12-26T09:03:46.177Z,11.79
2022-12-26T09:07:47.568Z,11.86
2022-12-26T09:11:49.003Z,11.94
2022-12-26T09:15:50.406Z,11.91
2022-12-26T09:19:53.281Z,12.07
2022-12-26T09:23:57.179Z,12.21
2022-12-26T09:27:59.479Z,12.11
2022-12-26T09:32:01.028Z,12.19
2022-12-26T09:36:12.503Z,12.20
2022-12-26T09:40:23.012Z,12.12
2022-12-26T09:44:30.733Z,12.16
2022-12-26T09:48:39.456Z,12.20
2022-12-26T09:52:48.554Z,12.12
2022-12-26T09:57:02.223Z,11.99
2022-12-26T10:01:09.942Z,11.98
2022-12-26T10:05:13.620Z,11.92
2022-12-26T10:09:44.258Z,11.67
2022-12-26T10:13:50.167Z,11.56
2022-12-26T10:17:58.819Z,11.05
2022-12-26T10:22:16.249Z,10.89
2022-12-26T10:26:22.094Z,10.99
2022-12-26T10:30:25.619Z,11.18
2022-12-26T10:34:31.293Z,11.16
2022-12-26T10:38:37.238Z,11.26
2022-12-26T10:42:42.083Z,11.45
2022-12-26T10:46:59.100Z,11.58
2022-12-26T10:51:00.533Z,11.64
2022-12-26T10:55:27.996Z,11.78
2022-12-26T10:59:39.963Z,11.76
2022-12-26T11:03:54.395Z,11.82
2022-12-26T11:08:06.926Z,11.90
2022-12-26T11:12:20.218Z,12.03
2022-12-26T11:16:28.893Z,12.07
2022-12-26T11:20:30.999Z,12.13
2022-12-26T11:24:32.423Z,12.05
2022-12-26T11:28:35.331Z,11.75
2022-12-26T11:32:38.131Z,11.40
2022-12-26T11:36:46.200Z,11.28
2022-12-26T11:40:48.855Z,11.28
2022-12-26T11:44:52.323Z,11.37
2022-12-26T11:48:55.077Z,11.47
2022-12-26T11:53:05.643Z,11.63
2022-12-26T11:57:16.548Z,11.62
2022-12-26T12:01:19.291Z,11.79
2022-12-26T12:05:34.885Z,11.84
2022-12-26T12:09:43.674Z,11.80
2022-12-26T12:13:54.411Z,11.68
2022-12-26T12:18:05.412Z,11.64
2022-12-26T12:22:25.658Z,11.62
2022-12-26T12:26:34.233Z,11.57
2022-12-26T12:30:42.751Z,11.71
2022-12-26T12:35:00.120Z,11.48
2022-12-26T12:39:10.899Z,11.48
2022-12-26T12:43:19.211Z,11.59
2022-12-26T12:47:34.195Z,11.49
2022-12-26T12:51:43.840Z,11.36
2022-12-26T12:55:59.227Z,10.92
2022-12-26T13:00:10.985Z,9.81
2022-12-26T13:04:14.271Z,8.55
2022-12-26T13:08:26.156Z,8.27
2022-12-26T13:12:30.674Z,8.12
2022-12-26T13:16:38.629Z,8.09
2022-12-26T13:20:43.293Z,8.11
2022-12-26T13:24:48.086Z,8.04
2022-12-26T13:28:59.054Z,8.07
2022-12-26T13:33:00.503Z,8.04
2022-12-26T13:37:01.940Z,8.06
2022-12-26T13:41:04.214Z,8.08
2022-12-26T13:45:46.236Z,8.12
2022-12-26T13:49:47.706Z,8.06
2022-12-26T13:54:02.553Z,8.00
2022-12-26T13:58:22.523Z,7.99
2022-12-26T14:03:20.437Z,7.93
2022-12-26T14:07:30.625Z,7.91
2022-12-26T14:11:46.265Z,7.90
2022-12-26T14:15:52.936Z,7.79
2022-12-26T14:20:03.195Z,7.82
2022-12-26T14:24:19.301Z,7.83
2022-12-26T14:28:26.955Z,7.86
2022-12-26T14:32:36.907Z,7.76
2022-12-26T14:36:47.159Z,7.82
2022-12-26T14:41:02.816Z,7.78
2022-12-26T14:45:13.913Z,7.84
2022-12-26T14:49:22.081Z,7.97
2022-12-26T14:53:33.757Z,7.89
2022-12-26T14:57:50.400Z,7.89
2022-12-26T15:02:01.975Z,7.99
2022-12-26T15:06:34.459Z,7.85
2022-12-26T15:11:14.825Z,7.69
2022-12-26T15:15:37.906Z,7.67
2022-12-26T15:20:02.606Z,7.65
2022-12-26T15:24:26.984Z,7.65
2022-12-26T15:29:09.249Z,7.76
2022-12-26T15:33:18.653Z,7.79
2022-12-26T15:37:32.206Z,7.73
2022-12-26T15:41:39.758Z,7.63
2022-12-26T15:45:48.536Z,7.62
2022-12-26T15:50:03.510Z,7.67
2022-12-26T15:54:22.153Z,7.54
2022-12-26T15:58:41.028Z,7.70
2022-12-26T16:02:48.720Z,7.62
2022-12-26T16:07:06.573Z,7.63
2022-12-26T16:11:13.141Z,7.56
2022-12-26T16:15:17.080Z,7.45
2022-12-26T16:19:21.777Z,7.48
2022-12-26T16:23:27.338Z,7.47
2022-12-26T16:27:29.998Z,7.38
2022-12-26T16:31:31.572Z,7.19
2022-12-26T16:35:37.981Z,7.16
2022-12-26T16:39:39.382Z,6.98
2022-12-26T16:43:40.809Z,6.97
2022-12-26T16:47:43.180Z,7.12
2022-12-26T16:51:47.667Z,7.26
2022-12-26T16:55:51.854Z,7.22
2022-12-26T16:59:56.470Z,7.33
2022-12-26T17:04:01.350Z,7.31
2022-12-26T17:08:05.638Z,7.41
2022-12-26T17:12:17.635Z,7.48
2022-12-26T17:16:23.441Z,7.54
2022-12-26T17:20:35.796Z,7.46
2022-12-26T17:24:38.533Z,7.70
2022-12-26T17:28:39.919Z,7.75
2022-12-26T17:32:44.707Z,7.80
2022-12-26T17:37:17.870Z,7.96
2022-12-26T17:41:09.253Z,8.06
2022-12-26T17:45:16.113Z,8.15
2022-12-26T17:49:17.515Z,8.19
2022-12-26T17:53:27.245Z,8.37
2022-12-26T17:57:30.291Z,8.50
2022-12-26T18:01:31.811Z,8.54
2022-12-26T18:05:34.295Z,8.52
2022-12-26T18:09:35.804Z,8.64
2022-12-26T18:13:38.862Z,8.61
2022-12-26T18:17:40.317Z,8.68
2022-12-26T18:21:42.175Z,8.70
2022-12-26T18:25:43.651Z,8.66
2022-12-26T18:29:46.485Z,8.59
2022-12-26T18:33:47.872Z,8.59
2022-12-26T18:37:51.649Z,8.57
2022-12-26T18:41:53.060Z,8.51
2022-12-26T18:45:55.945Z,8.62
2022-12-26T18:49:57.398Z,8.55
2022-12-26T18:53:58.837Z,8.63
2022-12-26T18:58:00.315Z,8.63
2022-12-26T19:02:03.079Z,8.68
2022-12-26T19:06:04.851Z,8.61
2022-12-26T19:10:09.571Z,8.44
2022-12-26T19:14:18.565Z,8.44
2022-12-26T19:18:21.278Z,8.49
2022-12-26T19:22:22.713Z,8.34
2022-12-26T19:26:24.476Z,8.27
2022-12-26T19:30:25.885Z,8.27
2022-12-26T19:34:28.674Z,8.23
2022-12-26T19:38:30.116Z,8.24
2022-12-26T19:42:31.530Z,8.29
2022-12-26T19:46:32.961Z,8.34
2022-12-26T19:50:36.068Z,8.40
2022-12-26T19:54:37.553Z,8.37
2022-12-26T19:58:39.077Z,8.26
2022-12-26T20:02:41.469Z,8.09
2022-12-26T20:06:44.340Z,7.10
2022-12-26T20:10:45.730Z,6.23
2022-12-26T20:14:47.302Z,6.03
2022-12-26T20:18:49.304Z,5.95
2022-12-26T20:22:53.390Z,5.89
2022-12-26T20:26:54.927Z,5.81
2022-12-26T20:30:58.031Z,5.92
2022-12-26T20:34:59.454Z,5.95
2022-12-26T20:39:04.937Z,5.84
2022-12-26T20:43:06.346Z,5.83
2022-12-26T20:47:07.810Z,5.80
2022-12-26T20:51:12.510Z,5.77
2022-12-26T20:55:15.337Z,5.87
2022-12-26T20:59:16.922Z,5.88
2022-12-26T21:03:18.403Z,5.91
2022-12-26T21:07:19.888Z,5.83
2022-12-26T21:11:24.745Z,5.81
2022-12-26T21:15:26.193Z,5.73
2022-12-26T21:19:28.673Z,5.68
2022-12-26T21:23:30.069Z,5.56
2022-12-26T21:27:32.812Z,5.54
2022-12-26T21:31:35.234Z,5.46
2022-12-26T21:35:36.722Z,5.40
2022-12-26T21:39:38.447Z,5.27
2022-12-26T21:43:41.152Z,5.18
2022-12-26T21:47:42.554Z,5.08
2022-12-26T21:51:44.223Z,4.88
2022-12-26T21:55:45.626Z,4.75
2022-12-26T21:59:48.640Z,4.69
2022-12-26T22:03:50.745Z,4.47
2022-12-26T22:07:53.228Z,4.28
2022-12-26T22:11:54.628Z,4.10
2022-12-26T22:15:58.025Z,3.92
2022-12-26T22:19:59.439Z,3.65
2022-12-26T22:24:01.097Z,3.49
2022-12-26T22:28:02.479Z,3.45
2022-12-26T22:32:05.360Z,3.35
2022-12-26T22:36:08.586Z,3.24
2022-12-26T22:40:11.616Z,3.19
2022-12-26T22:44:13.091Z,3.20
2022-12-26T22:48:15.969Z,3.31
2022-12-26T22:52:17.396Z,3.31
2022-12-26T22:56:18.881Z,3.34
2022-12-26T23:00:20.277Z,3.29
2022-12-26T23:04:23.516Z,3.31
2022-12-26T23:08:27.571Z,3.26
2022-12-26T23:12:29.413Z,3.22
2022-12-26T23:16:35.674Z,3.19
2022-12-26T23:20:39.093Z,3.12
2022-12-26T23:24:40.549Z,3.10
2022-12-26T23:28:41.963Z,3.03
2022-12-26T23:32:45.105Z,3.00
2022-12-26T23:36:47.839Z,2.99
2022-12-26T23:40:49.233Z,3.03
2022-12-26T23:44:50.642Z,3.03
2022-12-26T23:48:52.043Z,3.03
2022-12-26T23:52:54.757Z,2.98
2022-12-26T23:56:56.377Z,2.99
